createdAt,value
2023-01-10T00:01:24.572Z,3.60
2023-01-10T00:03:51.430Z,3.70
2023-01-10T00:06:18.151Z,3.50
2023-01-10T00:08:44.741Z,3.50
2023-01-10T00:11:30.074Z,3.60
2023-01-10T00:13:56.898Z,3.50
2023-01-10T00:16:23.607Z,3.50
2023-01-10T00:18:50.220Z,3.60
2023-01-10T00:21:16.939Z,3.60
2023-01-10T00:23:44.431Z,3.60
2023-01-10T00:26:11.643Z,3.50
2023-01-10T00:28:39.296Z,3.50
2023-01-10T00:31:09.656Z,3.60
2023-01-10T00:33:36.823Z,3.60
2023-01-10T00:36:04.741Z,3.60
2023-01-10T00:38:32.030Z,3.70
2023-01-10T00:40:58.775Z,3.70
2023-01-10T00:43:44.379Z,3.70
2023-01-10T00:46:11.000Z,3.60
2023-01-10T00:48:37.659Z,3.60
2023-01-10T00:51:04.984Z,3.60
2023-01-10T00:53:31.787Z,3.60
2023-01-10T00:55:58.422Z,3.90
2023-01-10T00:58:25.013Z,3.80
2023-01-10T01:00:51.628Z,3.70
2023-01-10T01:03:19.473Z,3.80
2023-01-10T01:05:47.059Z,3.80
2023-01-10T01:08:14.431Z,3.80
2023-01-10T01:10:41.058Z,3.70
2023-01-10T01:13:07.650Z,3.90
2023-01-10T01:15:37.332Z,4.00
2023-01-10T01:18:04.530Z,3.90
2023-01-10T01:20:31.152Z,3.70
2023-01-10T01:22:57.749Z,3.60
2023-01-10T01:25:24.650Z,3.80
2023-01-10T01:27:51.257Z,3.70
2023-01-10T01:30:17.856Z,3.60
2023-01-10T01:32:44.476Z,3.60
2023-01-10T01:35:13.669Z,3.40
2023-01-10T01:37:40.910Z,3.40
2023-01-10T01:40:08.885Z,3.80
2023-01-10T01:42:35.698Z,3.70
2023-01-10T01:45:22.269Z,3.60
2023-01-10T01:47:58.160Z,3.60
2023-01-10T01:50:29.014Z,3.60
2023-01-10T01:52:57.257Z,3.60
2023-01-10T01:55:25.654Z,3.60
2023-01-10T01:57:54.186Z,3.50
2023-01-10T02:00:20.985Z,3.50
2023-01-10T02:03:01.815Z,3.70
2023-01-10T02:05:30.423Z,3.70
2023-01-10T02:07:58.067Z,3.70
2023-01-10T02:10:31.724Z,3.70
2023-01-10T02:13:00.989Z,3.70
2023-01-10T02:15:27.726Z,3.50
2023-01-10T02:17:54.667Z,3.60
2023-01-10T02:20:22.556Z,3.60
2023-01-10T02:23:08.053Z,3.70
2023-01-10T02:25:43.805Z,3.80
2023-01-10T02:28:30.539Z,3.70
2023-01-10T02:31:06.424Z,3.60
2023-01-10T02:33:45.087Z,3.70
2023-01-10T02:36:11.942Z,3.60
2023-01-10T02:38:48.528Z,3.70
2023-01-10T02:41:33.779Z,3.60
2023-01-10T02:44:04.274Z,3.60
2023-01-10T02:46:31.712Z,3.60
2023-01-10T02:48:58.374Z,3.50
2023-01-10T02:51:27.343Z,3.60
2023-01-10T02:54:09.872Z,3.60
2023-01-10T02:56:42.492Z,3.60
2023-01-10T02:59:29.573Z,3.60
2023-01-10T03:02:01.578Z,3.50
2023-01-10T03:04:33.743Z,3.50
2023-01-10T03:07:11.183Z,3.50
2023-01-10T03:09:45.190Z,3.60
2023-01-10T03:12:18.289Z,3.50
2023-01-10T03:14:46.017Z,3.40
2023-01-10T03:17:13.294Z,3.40
2023-01-10T03:19:48.759Z,3.40
2023-01-10T03:22:15.655Z,3.50
2023-01-10T03:24:44.077Z,3.40
2023-01-10T03:27:22.502Z,3.40
2023-01-10T03:29:54.443Z,3.40
2023-01-10T03:32:23.530Z,3.40
2023-01-10T03:34:50.545Z,3.40
2023-01-10T03:37:20.417Z,3.50
2023-01-10T03:39:55.634Z,3.50
2023-01-10T03:42:51.524Z,3.50
2023-01-10T03:45:21.662Z,3.40
2023-01-10T03:47:49.514Z,3.60
2023-01-10T03:50:20.784Z,3.50
2023-01-10T03:52:47.742Z,3.40
2023-01-10T03:55:17.942Z,3.60
2023-01-10T03:57:45.659Z,3.60
2023-01-10T04:00:13.131Z,3.60
2023-01-10T04:02:39.747Z,3.40
2023-01-10T04:05:06.539Z,3.50
2023-01-10T04:07:33.156Z,3.50
2023-01-10T04:09:59.918Z,3.50
2023-01-10T04:12:27.514Z,3.50
2023-01-10T04:14:54.154Z,3.50
2023-01-10T04:17:20.875Z,3.40
2023-01-10T04:19:47.506Z,3.40
2023-01-10T04:22:14.387Z,3.30
2023-01-10T04:24:41.079Z,3.40
2023-01-10T04:27:07.694Z,3.40
2023-01-10T04:29:34.401Z,3.40
2023-01-10T04:32:01.090Z,3.40
2023-01-10T04:34:27.753Z,3.40
2023-01-10T04:36:54.386Z,3.50
2023-01-10T04:39:21.113Z,3.50
2023-01-10T04:41:47.757Z,3.50
2023-01-10T04:44:14.414Z,3.50
2023-01-10T04:46:41.047Z,3.60
2023-01-10T04:49:09.311Z,3.50
2023-01-10T04:51:36.100Z,3.50
2023-01-10T04:54:02.685Z,3.60
2023-01-10T04:56:29.360Z,3.50
2023-01-10T04:58:56.246Z,3.60
2023-01-10T05:01:24.480Z,3.50
2023-01-10T05:03:52.565Z,3.40
2023-01-10T05:06:19.574Z,3.40
2023-01-10T05:08:46.434Z,3.50
2023-01-10T05:11:13.340Z,3.30
2023-01-10T05:13:39.951Z,3.20
2023-01-10T05:16:07.027Z,3.40
2023-01-10T05:18:34.112Z,3.30
2023-01-10T05:21:01.643Z,3.20
2023-01-10T05:23:28.720Z,3.30
2023-01-10T05:25:55.675Z,3.40
2023-01-10T05:28:22.622Z,3.40
2023-01-10T05:30:49.337Z,3.30
2023-01-10T05:33:15.976Z,3.40
2023-01-10T05:35:42.624Z,3.40
2023-01-10T05:38:09.213Z,3.40
2023-01-10T05:40:35.818Z,3.30
2023-01-10T05:43:02.478Z,3.30
2023-01-10T05:45:29.081Z,3.20
2023-01-10T05:47:55.720Z,3.30
2023-01-10T05:50:22.312Z,3.20
2023-01-10T05:52:49.240Z,3.30
2023-01-10T05:55:15.947Z,3.30
2023-01-10T05:57:42.603Z,3.40
2023-01-10T06:00:09.630Z,3.30
2023-01-10T06:02:38.998Z,3.20
2023-01-10T06:05:05.963Z,3.30
2023-01-10T06:07:32.600Z,3.50
2023-01-10T06:09:59.221Z,3.30
2023-01-10T06:12:26.024Z,3.30
2023-01-10T06:14:52.654Z,3.30
2023-01-10T06:17:19.368Z,3.40
2023-01-10T06:19:46.035Z,3.50
2023-01-10T06:22:12.667Z,3.50
2023-01-10T06:24:39.375Z,3.30
2023-01-10T06:27:06.168Z,3.40
2023-01-10T06:29:32.928Z,3.40
2023-01-10T06:32:00.322Z,3.60
2023-01-10T06:34:26.910Z,3.50
2023-01-10T06:36:53.508Z,3.50
2023-01-10T06:39:20.108Z,3.50
2023-01-10T06:41:46.894Z,3.60
2023-01-10T06:44:13.889Z,3.40
2023-01-10T06:46:40.671Z,3.50
2023-01-10T06:49:07.402Z,3.40
2023-01-10T06:51:34.071Z,3.50
2023-01-10T06:54:00.704Z,3.50
2023-01-10T06:56:27.319Z,3.40
2023-01-10T06:58:54.116Z,3.40
2023-01-10T07:01:21.962Z,3.30
2023-01-10T07:03:48.823Z,3.20
2023-01-10T07:06:18.942Z,3.20
2023-01-10T07:08:47.000Z,3.20
2023-01-10T07:11:14.827Z,3.20
2023-01-10T07:13:41.608Z,3.20
2023-01-10T07:16:10.154Z,3.20
2023-01-10T07:18:38.000Z,3.20
2023-01-10T07:21:04.690Z,3.20
2023-01-10T07:23:31.672Z,3.20
2023-01-10T07:25:59.210Z,3.20
2023-01-10T07:28:25.859Z,3.20
2023-01-10T07:30:52.460Z,3.20
2023-01-10T07:33:19.110Z,3.20
2023-01-10T07:35:45.798Z,3.30
2023-01-10T07:38:12.406Z,3.30
2023-01-10T07:40:39.104Z,3.30
2023-01-10T07:43:05.820Z,3.40
2023-01-10T07:45:32.429Z,3.30
2023-01-10T07:48:00.099Z,3.30
2023-01-10T07:50:28.472Z,3.30
2023-01-10T07:52:55.429Z,3.30
2023-01-10T07:55:22.562Z,3.30
2023-01-10T07:57:52.365Z,3.30
2023-01-10T08:00:19.275Z,3.50
2023-01-10T08:02:46.123Z,3.50
2023-01-10T08:05:13.332Z,3.60
2023-01-10T08:07:40.158Z,3.50
2023-01-10T08:10:07.509Z,3.60
2023-01-10T08:12:34.203Z,3.50
2023-01-10T08:15:00.795Z,3.60
2023-01-10T08:17:27.410Z,3.50
2023-01-10T08:19:54.035Z,3.50
2023-01-10T08:22:20.658Z,3.50
2023-01-10T08:24:47.341Z,3.40
2023-01-10T08:27:13.988Z,3.40
2023-01-10T08:29:41.978Z,3.50
2023-01-10T08:32:08.761Z,3.50
2023-01-10T08:34:35.399Z,3.60
2023-01-10T08:37:02.046Z,3.70
2023-01-10T08:39:30.584Z,3.70
2023-01-10T08:41:57.443Z,3.60
2023-01-10T08:44:24.053Z,3.60
2023-01-10T08:46:50.793Z,3.70
2023-01-10T08:49:17.659Z,3.70
2023-01-10T08:51:44.685Z,3.80
2023-01-10T08:54:11.296Z,3.80
2023-01-10T08:56:40.070Z,3.70
2023-01-10T08:59:07.153Z,3.90
2023-01-10T09:01:33.992Z,3.90
2023-01-10T09:04:00.697Z,3.80
2023-01-10T09:06:27.296Z,3.90
2023-01-10T09:08:53.977Z,4.10
2023-01-10T09:11:20.582Z,4.10
2023-01-10T09:13:50.889Z,4.20
2023-01-10T09:16:18.123Z,4.10
2023-01-10T09:18:44.823Z,4.10
2023-01-10T09:21:11.426Z,4.00
2023-01-10T09:23:39.909Z,4.00
2023-01-10T09:26:06.769Z,3.90
2023-01-10T09:28:33.447Z,3.80
2023-01-10T09:31:01.154Z,3.50
2023-01-10T09:33:32.279Z,3.40
2023-01-10T09:36:10.269Z,3.40
2023-01-10T09:38:37.272Z,3.30
2023-01-10T09:41:22.906Z,3.30
2023-01-10T09:44:06.573Z,3.60
2023-01-10T09:46:48.017Z,3.70
2023-01-10T09:49:24.594Z,3.70
2023-01-10T09:51:52.795Z,4.00
2023-01-10T09:54:27.115Z,4.00
2023-01-10T09:56:54.978Z,4.40
2023-01-10T09:59:25.701Z,4.30
2023-01-10T10:01:54.314Z,4.20
2023-01-10T10:04:32.208Z,4.20
2023-01-10T10:06:59.309Z,4.40
2023-01-10T10:09:28.775Z,4.60
2023-01-10T10:12:23.872Z,4.70
2023-01-10T10:14:59.151Z,4.80
2023-01-10T10:17:37.112Z,4.90
2023-01-10T10:20:03.908Z,5.10
2023-01-10T10:22:49.486Z,5.60
2023-01-10T10:25:51.736Z,5.70
2023-01-10T10:28:46.550Z,5.80
2023-01-10T10:31:27.886Z,5.70
2023-01-10T10:33:58.799Z,5.70
2023-01-10T10:36:38.150Z,5.60
2023-01-10T10:39:05.526Z,6.00
2023-01-10T10:41:34.732Z,6.00
2023-01-10T10:44:05.276Z,6.50
2023-01-10T10:46:32.067Z,6.90
2023-01-10T10:49:16.720Z,7.20
2023-01-10T10:51:49.475Z,7.10
2023-01-10T10:54:16.620Z,7.30
2023-01-10T10:56:43.668Z,7.10
2023-01-10T10:59:12.278Z,6.50
2023-01-10T11:01:40.632Z,6.20
2023-01-10T11:04:11.856Z,6.30
2023-01-10T11:06:40.948Z,6.10
2023-01-10T11:09:07.705Z,6.10
2023-01-10T11:11:37.731Z,6.00
2023-01-10T11:14:05.952Z,6.00
2023-01-10T11:16:34.154Z,5.60
2023-01-10T11:19:09.295Z,5.70
2023-01-10T11:21:36.509Z,5.50
2023-01-10T11:24:03.346Z,5.60
2023-01-10T11:26:30.781Z,5.40
2023-01-10T11:29:08.813Z,5.10
2023-01-10T11:31:37.137Z,5.10
2023-01-10T11:34:06.865Z,5.30
2023-01-10T11:36:52.958Z,5.40
2023-01-10T11:39:20.017Z,5.30
2023-01-10T11:41:48.900Z,5.10
2023-01-10T11:44:25.383Z,5.10
2023-01-10T11:46:56.719Z,5.10
2023-01-10T11:49:43.432Z,5.10
2023-01-10T11:52:20.307Z,5.20
2023-01-10T11:54:48.191Z,5.10
2023-01-10T11:57:18.085Z,4.90
2023-01-10T12:00:14.317Z,5.00
2023-01-10T12:02:43.033Z,4.90
2023-01-10T12:05:12.117Z,4.80
2023-01-10T12:07:58.844Z,4.90
2023-01-10T12:10:28.129Z,5.00
2023-01-10T12:12:58.129Z,5.00
2023-01-10T12:15:29.253Z,5.10
2023-01-10T12:17:57.851Z,5.10
2023-01-10T12:20:26.959Z,5.00
2023-01-10T12:22:58.787Z,5.20
2023-01-10T12:25:29.542Z,5.20
2023-01-10T12:27:57.943Z,5.30
2023-01-10T12:30:36.514Z,5.70
2023-01-10T12:33:06.984Z,6.00
2023-01-10T12:35:38.420Z,6.00
2023-01-10T12:38:08.949Z,5.80
2023-01-10T12:40:38.070Z,5.70
2023-01-10T12:43:31.510Z,5.40
2023-01-10T12:46:16.862Z,5.20
2023-01-10T12:48:58.264Z,5.20
2023-01-10T12:51:28.323Z,5.50
2023-01-10T12:54:00.253Z,5.70
2023-01-10T12:56:27.947Z,5.70
2023-01-10T12:58:58.340Z,5.60
2023-01-10T13:01:30.591Z,5.60
2023-01-10T13:04:09.351Z,5.60
2023-01-10T13:06:38.427Z,5.50
2023-01-10T13:09:09.889Z,5.50
2023-01-10T13:11:50.859Z,5.40
2023-01-10T13:14:18.947Z,5.30
2023-01-10T13:16:48.650Z,5.40
2023-01-10T13:19:19.881Z,5.40
2023-01-10T13:21:47.552Z,5.30
2023-01-10T13:24:22.698Z,5.30
2023-01-10T13:26:51.166Z,5.50
2023-01-10T13:29:25.817Z,5.50
2023-01-10T13:31:57.756Z,5.50
2023-01-10T13:34:32.905Z,5.50
2023-01-10T13:37:05.170Z,5.50
2023-01-10T13:39:35.967Z,5.50
2023-01-10T13:42:22.615Z,5.40
2023-01-10T13:45:05.116Z,5.40
2023-01-10T13:47:44.361Z,5.20
2023-01-10T13:50:34.014Z,5.10
2023-01-10T13:53:02.308Z,5.20
2023-01-10T13:55:35.594Z,5.10
2023-01-10T13:58:02.533Z,5.20
2023-01-10T14:00:54.539Z,5.20
2023-01-10T14:03:40.260Z,5.30
2023-01-10T14:06:28.024Z,5.10
2023-01-10T14:09:03.853Z,5.20
2023-01-10T14:11:37.978Z,5.30
2023-01-10T14:14:06.337Z,5.30
2023-01-10T14:16:37.573Z,5.10
2023-01-10T14:19:21.013Z,5.20
2023-01-10T14:21:53.081Z,5.10
2023-01-10T14:24:29.448Z,5.10
2023-01-10T14:27:00.492Z,5.10
2023-01-10T14:29:32.885Z,5.10
2023-01-10T14:32:05.372Z,5.20
2023-01-10T14:34:43.455Z,5.10
2023-01-10T14:37:38.155Z,5.20
2023-01-10T14:40:09.691Z,5.20
2023-01-10T14:42:41.473Z,5.10
2023-01-10T14:45:23.560Z,5.20
2023-01-10T14:47:52.348Z,5.00
2023-01-10T14:50:38.148Z,5.10
2023-01-10T14:53:07.462Z,5.20
2023-01-10T14:55:39.388Z,5.30
2023-01-10T14:58:07.561Z,5.20
2023-01-10T15:00:41.067Z,5.30
2023-01-10T15:03:18.859Z,5.30
2023-01-10T15:05:47.873Z,5.20
2023-01-10T15:08:22.707Z,5.30
2023-01-10T15:10:52.101Z,5.30
2023-01-10T15:14:04.051Z,5.10
2023-01-10T15:16:39.246Z,5.10
2023-01-10T15:19:07.936Z,4.90
2023-01-10T15:21:41.501Z,4.90
2023-01-10T15:24:30.580Z,4.90
2023-01-10T15:27:00.833Z,4.80
2023-01-10T15:29:29.537Z,4.70
2023-01-10T15:32:09.576Z,4.60
2023-01-10T15:35:54.868Z,4.50
2023-01-10T15:38:36.440Z,4.40
2023-01-10T15:41:06.665Z,4.30
2023-01-10T15:43:35.154Z,4.30
2023-01-10T15:46:03.938Z,4.40
2023-01-10T15:48:33.952Z,4.50
2023-01-10T15:51:04.088Z,4.30
2023-01-10T15:54:13.382Z,4.30
2023-01-10T15:56:43.304Z,4.10
2023-01-10T15:59:22.608Z,4.00
2023-01-10T16:02:10.883Z,3.90
2023-01-10T16:04:39.490Z,3.80
2023-01-10T16:07:13.345Z,3.90
2023-01-10T16:09:41.746Z,3.80
2023-01-10T16:12:42.413Z,3.70
2023-01-10T16:15:14.920Z,3.80
2023-01-10T16:17:42.483Z,3.80
2023-01-10T16:20:13.086Z,3.80
2023-01-10T16:22:40.678Z,3.70
2023-01-10T16:25:13.521Z,3.70
2023-01-10T16:27:40.883Z,3.70
2023-01-10T16:30:14.884Z,3.60
2023-01-10T16:32:43.135Z,3.60
2023-01-10T16:35:12.324Z,3.50
2023-01-10T16:38:05.163Z,3.40
2023-01-10T16:40:37.612Z,3.40
2023-01-10T16:43:25.719Z,3.50
2023-01-10T16:45:55.061Z,3.30
2023-01-10T16:48:23.817Z,3.30
2023-01-10T16:50:51.233Z,3.20
2023-01-10T16:53:19.757Z,3.10
2023-01-10T16:55:48.399Z,3.10
2023-01-10T16:58:15.912Z,3.10
2023-01-10T17:00:44.087Z,3.20
2023-01-10T17:03:16.535Z,3.10
2023-01-10T17:05:43.305Z,3.00
2023-01-10T17:08:17.476Z,3.10
2023-01-10T17:10:45.099Z,3.00
2023-01-10T17:13:12.149Z,3.00
2023-01-10T17:15:38.962Z,3.00
2023-01-10T17:18:05.687Z,3.00
2023-01-10T17:20:32.539Z,2.90
2023-01-10T17:22:59.258Z,2.90
2023-01-10T17:25:26.001Z,2.90
2023-01-10T17:27:52.734Z,2.70
2023-01-10T17:30:19.681Z,2.70
2023-01-10T17:32:46.963Z,2.60
2023-01-10T17:35:13.694Z,2.50
2023-01-10T17:37:42.333Z,2.40
2023-01-10T17:40:09.990Z,2.10
2023-01-10T17:42:36.745Z,1.90
2023-01-10T17:45:03.666Z,2.00
2023-01-10T17:47:30.482Z,2.10
2023-01-10T17:49:57.334Z,2.10
2023-01-10T17:52:24.108Z,2.20
2023-01-10T17:54:51.033Z,2.00
2023-01-10T17:57:17.818Z,2.00
2023-01-10T17:59:44.607Z,2.10
2023-01-10T18:02:15.345Z,2.00
2023-01-10T18:04:42.258Z,2.00
2023-01-10T18:07:09.051Z,2.00
2023-01-10T18:09:35.795Z,1.80
2023-01-10T18:12:02.501Z,1.60
2023-01-10T18:14:38.602Z,1.40
2023-01-10T18:17:07.401Z,1.30
2023-01-10T18:19:34.990Z,1.20
2023-01-10T18:22:23.610Z,1.20
2023-01-10T18:24:53.219Z,1.20
2023-01-10T18:27:21.728Z,1.20
2023-01-10T18:29:49.618Z,0.90
2023-01-10T18:32:16.924Z,1.10
2023-01-10T18:34:44.079Z,1.10
2023-01-10T18:40:34.799Z,0.90
2023-01-10T18:43:04.726Z,0.90
2023-01-10T18:45:36.316Z,0.50
2023-01-10T18:48:09.495Z,0.30
2023-01-10T18:50:47.424Z,0.20
2023-01-10T18:53:40.014Z,0.20
2023-01-10T18:56:20.165Z,0.30
2023-01-10T18:58:53.694Z,0.60
2023-01-10T19:01:22.458Z,0.60
2023-01-10T19:03:50.195Z,0.80
2023-01-10T19:06:18.119Z,0.70
2023-01-10T19:08:45.645Z,0.70
2023-01-10T19:11:15.415Z,0.50
2023-01-10T19:13:43.992Z,0.50
2023-01-10T19:16:12.740Z,0.50
2023-01-10T19:18:39.556Z,0.60
2023-01-10T19:21:06.369Z,0.60
2023-01-10T19:23:33.148Z,0.60
2023-01-10T19:26:00.031Z,0.70
2023-01-10T19:28:29.474Z,0.40
2023-01-10T19:31:04.005Z,0.40
2023-01-10T19:33:35.059Z,0.30
2023-01-10T19:36:08.242Z,0.30
2023-01-10T19:38:36.470Z,0.20
2023-01-10T19:41:04.378Z,0.20
2023-01-10T19:43:31.966Z,0.20
2023-01-10T19:45:58.742Z,0.30
2023-01-10T19:48:25.889Z,0.20
2023-01-10T19:50:53.523Z,0.20
2023-01-10T19:53:25.313Z,0.20
2023-01-10T19:56:04.354Z,0.10
2023-01-10T19:58:35.037Z,0.20
2023-01-10T20:01:12.352Z,0.30
2023-01-10T20:03:42.145Z,0.30
2023-01-10T20:06:10.184Z,0.30
2023-01-10T20:08:37.045Z,0.10
2023-01-10T20:11:05.534Z,0.10
2023-01-10T20:13:37.164Z,0.10
2023-01-10T20:16:04.523Z,0.00
2023-01-10T20:18:31.359Z,0.00
2023-01-10T20:20:58.208Z,0.00
2023-01-10T20:23:24.990Z,0.10
2023-01-10T20:26:04.159Z,0.00
2023-01-10T20:28:31.005Z,-0.10
2023-01-10T20:31:21.566Z,0.00
2023-01-10T20:33:59.520Z,0.10
2023-01-10T20:36:26.596Z,0.00
2023-01-10T20:39:13.743Z,0.10
2023-01-10T20:41:43.615Z,0.00
2023-01-10T20:44:10.395Z,0.10
2023-01-10T20:46:44.980Z,0.00
2023-01-10T20:49:12.246Z,0.00
2023-01-10T20:51:39.164Z,-0.10
2023-01-10T20:54:08.151Z,-0.10
2023-01-10T20:56:35.436Z,-0.10
2023-01-10T20:59:02.280Z,-0.10
2023-01-10T21:01:34.577Z,-0.10
2023-01-10T21:04:02.393Z,0.00
2023-01-10T21:06:29.251Z,-0.10
2023-01-10T21:08:56.178Z,0.00
2023-01-10T21:11:22.865Z,0.00
2023-01-10T21:13:49.681Z,0.20
2023-01-10T21:16:18.124Z,0.20
2023-01-10T21:18:45.270Z,0.30
2023-01-10T21:21:13.105Z,0.50
2023-01-10T21:23:40.261Z,0.50
2023-01-10T21:26:08.282Z,0.60
2023-01-10T21:28:37.619Z,0.60
2023-01-10T21:31:05.353Z,0.70
2023-01-10T21:33:32.422Z,0.80
2023-01-10T21:35:59.290Z,0.90
2023-01-10T21:38:27.235Z,0.90
2023-01-10T21:41:04.342Z,0.90
2023-01-10T21:43:31.634Z,1.00
2023-01-10T21:45:58.807Z,0.90
2023-01-10T21:48:25.734Z,1.00
2023-01-10T21:50:52.924Z,1.10
2023-01-10T21:53:19.920Z,1.00
2023-01-10T21:55:46.663Z,1.10
2023-01-10T21:58:13.372Z,1.00
2023-01-10T22:00:40.065Z,1.00
2023-01-10T22:03:06.768Z,1.10
2023-01-10T22:05:33.453Z,1.00
2023-01-10T22:08:00.155Z,1.00
2023-01-10T22:10:26.818Z,1.00
2023-01-10T22:12:53.518Z,1.00
2023-01-10T22:15:20.888Z,1.00
2023-01-10T22:17:48.168Z,1.10
2023-01-10T22:20:16.689Z,1.10
2023-01-10T22:22:43.435Z,1.00
2023-01-10T22:25:10.285Z,1.00
2023-01-10T22:27:36.954Z,1.10
2023-01-10T22:30:04.298Z,1.10
2023-01-10T22:32:31.015Z,1.00
2023-01-10T22:34:57.696Z,1.00
2023-01-10T22:37:24.426Z,0.90
2023-01-10T22:39:51.185Z,0.80
2023-01-10T22:42:17.824Z,0.70
2023-01-10T22:44:44.431Z,0.80
2023-01-10T22:47:11.113Z,0.80
2023-01-10T22:49:38.817Z,0.80
2023-01-10T22:52:08.359Z,0.80
2023-01-10T22:54:35.215Z,0.90
2023-01-10T22:57:01.823Z,0.80
2023-01-10T22:59:28.606Z,0.90
2023-01-10T23:01:55.197Z,0.90
2023-01-10T23:04:22.070Z,0.80
2023-01-10T23:06:50.112Z,0.90
2023-01-10T23:09:16.859Z,1.00
2023-01-10T23:11:43.819Z,0.90
2023-01-10T23:14:10.675Z,0.90
2023-01-10T23:16:37.329Z,0.90
2023-01-10T23:19:04.378Z,1.00
2023-01-10T23:21:31.095Z,1.10
2023-01-10T23:23:57.817Z,1.00
2023-01-10T23:26:24.868Z,1.10
2023-01-10T23:28:52.025Z,1.10
2023-01-10T23:31:20.554Z,1.10
2023-01-10T23:33:47.673Z,1.10
2023-01-10T23:36:14.554Z,1.10
2023-01-10T23:38:41.285Z,1.30
2023-01-10T23:41:09.067Z,1.30
2023-01-10T23:43:35.860Z,1.20
2023-01-10T23:46:02.884Z,1.20
2023-01-10T23:48:30.096Z,1.30
2023-01-10T23:50:57.221Z,1.20
2023-01-10T23:53:23.874Z,1.10
2023-01-10T23:55:50.569Z,1.10
2023-01-10T23:58:17.325Z,1.10
